Have a Safe July 4th! 

Flight Track Log - Related Links

Times and Time Zones

All times are in EDT time to prevent confusion due to time zone crossing. See the EJA955 flight status page for this flight to view local times or setup timezone preferences in your user account.

Time Position Orientation Groundspeed Altitude Reporting Facility
EDT Latitude Longitude Course Direction KTS MPH feet Rate Location/Type
Wed 09:23:24 AM 24.9797 -77.4708 270° West 339 390 7,100  Level Miami Center
Wed 09:24:24 AM 24.9981 -77.5672 282° West 240 276 11,200 3,400 Climbing Miami Center
Wed 09:25:24 AM 25.0164 -77.6797 280° West 291 335 13,900 2,350 Climbing Miami Center
Wed 09:26:24 AM 25.0617 -77.7881 295° West 362 417 15,900 1,050 Climbing Miami Center
Wed 09:27:24 AM 25.1089 -77.9053 294° West 382 440 16,000 50 Climbing Miami Center
Wed 09:28:00 AM 24.9833 -78.1064 270° West  Level FlightAware Approximate
Wed 09:28:24 AM 25.1603 -78.0319 294° West 426 490 16,000  Level Miami Center
Wed 09:29:24 AM 25.1967 -78.1633 287° West 445 512 16,000  Level Miami Center
Wed 09:30:24 AM 25.2272 -78.2761 287° West 458 527 16,000  Level Miami Center
Wed 09:31:24 AM 25.2567 -78.4397 281° West 463 533 16,000 50 Level Miami Center
Wed 09:32:24 AM 25.2553 -78.5797 269° West 463 533 16,100  Climbing Miami Center
Wed 09:33:24 AM 25.2578 -78.7156 271° West 457 526 16,000 -50 Descending Miami Center
Wed 09:34:24 AM 25.2581 -78.8556 270° West 457 526 16,000  Level Miami Center
Wed 09:35:24 AM 25.2625 -78.9936 272° West 457 526 16,000 -50 Level Miami Center
Wed 09:36:24 AM 25.2856 -79.1272 281° West 457 526 15,900 -100 Descending Miami Center
Wed 09:37:24 AM 25.2461 -79.2458 250° West 416 479 15,800 -550 Descending Miami Center
Wed 09:38:24 AM 25.2125 -79.3669 253° West 416 479 14,800 -1,000 Descending Miami Center
Wed 09:39:24 AM 25.2522 -79.4894 290° West 398 458 13,800 -1,000 Descending Miami Center
Wed 09:40:06 AM 25.2947 -79.5708 300° West 423 487 13,100 -989 Descending Miami Center
Wed 09:40:55 AM 25.3453 -79.6594 302° West 422 486 12,300 -818 Descending Miami Center
Wed 09:41:56 AM 25.4061 -79.7575 304° West 361 415 11,600 -844 Descending Miami Center
Wed 09:43:03 AM 25.4731 -79.8556 307° West 363 418 10,500 -787 Descending Miami Center
Wed 09:43:58 AM 25.5278 -79.9400 306° West 360 414 10,000 -246 Descending Miami Center
Wed 09:45:05 AM 25.6011 -80.0269 313° West 361 415 10,000  Level Miami Center
Wed 09:46:00 AM 25.6644 -80.0956 316° Northwest 352 405 10,000 -362 Level Miami Center
Wed 09:47:01 AM 25.7336 -80.1736 315° West 314 361 9,300 -828 Descending Miami Center
Wed 09:47:56 AM 25.7825 -80.2325 313° West 295 339 8,400 -984 Descending Miami Center
Wed 09:49:03 AM 25.8497 -80.3036 316° Northwest 294 338 7,300 -1,172 Descending Miami Center
Wed 09:50:04 AM 25.8833 -80.3808 296° West 257 296 5,900 -1,475 Descending Miami Center
Wed 09:51:05 AM 25.8900 -80.4550 276° West 243 280 4,300 -1,190 Descending Miami Center
Wed 09:52:05 AM 25.8489 -80.5089 230° Southwest 235 270 3,500 -639 Descending Miami Center
Wed 09:53:07 AM 25.8056 -80.4869 155° Southeast 211 243 3,000 -541 Descending Miami Center
Wed 09:54:07 AM 25.7967 -80.4244 99° East 194 223 2,400 -857 Descending Miami Center
Wed 09:55:20 AM 25.7983 -80.3597 88° East 167 192 1,100 -940 Descending Miami Center
Wed 09:56:21 AM 25.8014 -80.3161 86° East 120 138 300 -787 Descending Miami Center
Wed 09:58:00 AM 25.7954 -80.2901 77° East  Level Estimated
Wed 10:05:00 AM 25.7954 -80.2901 77° East  Level Estimated

Login

Don't have an account? Register now (free) for customized features, flight alerts, and more!